Wetterdaten: Woche 18.04.22 - 24.04.22 (KW16)
Datum Zeit Temp. Aussen Temp. o. S. Temp +5cm Feuchte Auss Luftdruck Regen Sonnenschein Regendauer Solar Windben Empfang
18.04.2022 00:00 9,9 C 9,4 C 6,0 C 59 % 1021,5 hPa 0,0 l/m 0,00 h 0,00 h 0 W/m 5,6 km/h (1 Bft) 95,17 %
18.04.2022 01:00 10,4 C 9,6 C 6,4 C 53 % 1021,3 hPa 0,0 l/m 0,00 h 0,00 h 0 W/m 8,5 km/h (2 Bft) 98,50 %
18.04.2022 02:00 9,8 C 8,9 C 5,6 C 54 % 1021,0 hPa 0,0 l/m 0,00 h 0,00 h 0 W/m 9,7 km/h (2 Bft) 97,51 %
18.04.2022 03:00 9,3 C 8,1 C 4,9 C 55 % 1020,7 hPa 0,0 l/m 0,00 h 0,00 h 0 W/m 7,7 km/h (2 Bft) 97,22 %
18.04.2022 04:00 8,3 C 7,2 C 4,1 C 59 % 1020,3 hPa 0,0 l/m 0,00 h 0,00 h 0 W/m 6,6 km/h (2 Bft) 96,98 %
18.04.2022 05:00 7,8 C 6,9 C 3,7 C 61 % 1020,0 hPa 0,0 l/m 0,00 h 0,00 h 0 W/m 5,8 km/h (2 Bft) 99,64 %
18.04.2022 06:00 7,1 C 6,1 C 2,9 C 63 % 1020,1 hPa 0,0 l/m 0,00 h 0,00 h 8 W/m 5,0 km/h (1 Bft) 96,25 %
18.04.2022 07:00 7,0 C 6,5 C 3,2 C 65 % 1020,2 hPa 0,0 l/m 0,00 h 0,00 h 20 W/m 9,2 km/h (2 Bft) 98,08 %
18.04.2022 08:00 8,5 C 8,3 C 4,6 C 63 % 1020,4 hPa 0,0 l/m 0,23 h 0,00 h 108 W/m 13,2 km/h (3 Bft) 97,22 %
18.04.2022 09:00 11,8 C 16,4 C 7,2 C 56 % 1020,4 hPa 0,0 l/m 1,00 h 0,00 h 457 W/m 14,8 km/h (3 Bft) 96,22 %
18.04.2022 10:00 14,2 C 17,6 C 10,4 C 50 % 1020,3 hPa 0,0 l/m 0,77 h 0,00 h 435 W/m 14,1 km/h (3 Bft) 96,37 %
18.04.2022 11:00 15,7 C 17,6 C 13,3 C 49 % 1019,9 hPa 0,0 l/m 1,00 h 0,00 h 743 W/m 10,6 km/h (2 Bft) 99,36 %
18.04.2022 12:00 18,3 C 22,5 C 20,5 C 42 % 1019,3 hPa 0,0 l/m 1,00 h 0,00 h 827 W/m 11,4 km/h (2 Bft) 96,98 %
18.04.2022 13:00 19,6 C 23,8 C 14,9 C 38 % 1018,9 hPa 0,0 l/m 1,00 h 0,00 h 855 W/m 11,0 km/h (2 Bft) 99,72 %
18.04.2022 14:00 20,3 C 25,0 C 15,0 C 36 % 1018,3 hPa 0,0 l/m 1,00 h 0,00 h 820 W/m 11,7 km/h (2 Bft) 96,52 %
18.04.2022 15:00 21,0 C 25,9 C 15,3 C 36 % 1017,5 hPa 0,0 l/m 1,00 h 0,00 h 735 W/m 11,1 km/h (2 Bft) 97,50 %
18.04.2022 16:00 21,4 C 27,9 C 16,1 C 37 % 1016,9 hPa 0,0 l/m 1,00 h 0,00 h 552 W/m 8,5 km/h (2 Bft) 98,08 %
18.04.2022 17:00 21,4 C 28,0 C 17,0 C 37 % 1016,3 hPa 0,0 l/m 1,00 h 0,00 h 444 W/m 8,7 km/h (2 Bft) 98,01 %
18.04.2022 18:00 21,7 C 24,7 C 16,0 C 38 % 1015,9 hPa 0,0 l/m 0,80 h 0,00 h 253 W/m 6,8 km/h (2 Bft) 96,00 %
18.04.2022 19:00 19,2 C 17,8 C 13,4 C 43 % 1015,6 hPa 0,0 l/m 0,00 h 0,00 h 37 W/m 4,7 km/h (1 Bft) 98,38 %
18.04.2022 20:00 16,6 C 14,6 C 11,0 C 48 % 1015,7 hPa 0,0 l/m 0,00 h 0,00 h 12 W/m 4,8 km/h (1 Bft) 96,51 %
18.04.2022 21:00 14,7 C 12,6 C 9,2 C 53 % 1016,1 hPa 0,0 l/m 0,00 h 0,00 h 0 W/m 3,2 km/h (1 Bft) 99,29 %
18.04.2022 22:00 13,1 C 11,3 C 7,8 C 56 % 1015,9 hPa 0,0 l/m 0,00 h 0,00 h 0 W/m 2,7 km/h (1 Bft) 96,65 %
18.04.2022 23:00 11,8 C 9,8 C 6,5 C 61 % 1015,9 hPa 0,0 l/m 0,00 h 0,00 h 0 W/m 2,2 km/h (1 Bft) 97,44 %
19.04.2022 00:00 10,3 C 8,5 C 5,1 C 66 % 1015,6 hPa 0,0 l/m 0,00 h 0,00 h 0 W/m 0,3 km/h (0 Bft) 97,90 %
19.04.2022 01:00 9,0 C 7,6 C 4,2 C 69 % 1015,1 hPa 0,0 l/m 0,00 h 0,00 h 0 W/m 0,5 km/h (0 Bft) 98,43 %
19.04.2022 02:00 8,2 C 7,2 C 3,8 C 70 % 1014,7 hPa 0,0 l/m 0,00 h 0,00 h 0 W/m 0,6 km/h (0 Bft) 96,45 %
19.04.2022 03:00 8,1 C 6,5 C 3,4 C 72 % 1014,5 hPa 0,0 l/m 0,00 h 0,00 h 0 W/m 1,1 km/h (0 Bft) 94,52 %
19.04.2022 04:00 6,9 C 5,2 C 2,3 C 78 % 1014,3 hPa 0,0 l/m 0,00 h 0,00 h 0 W/m 0,1 km/h (0 Bft) 96,47 %
19.04.2022 05:00 5,9 C 4,8 C 1,7 C 81 % 1014,1 hPa 0,0 l/m 0,00 h 0,00 h 0 W/m 0,7 km/h (0 Bft) 98,29 %
19.04.2022 06:00 5,6 C 5,0 C 1,8 C 83 % 1014,4 hPa 0,0 l/m 0,00 h 0,00 h 10 W/m 1,0 km/h (0 Bft) 98,48 %
19.04.2022 07:00 6,1 C 5,9 C 2,6 C 82 % 1014,5 hPa 0,0 l/m 0,00 h 0,00 h 24 W/m 4,1 km/h (1 Bft) 93,65 %
19.04.2022 08:00 8,4 C 8,4 C 4,7 C 76 % 1014,6 hPa 0,0 l/m 0,27 h 0,00 h 121 W/m 7,7 km/h (2 Bft) 98,72 %
19.04.2022 09:00 12,6 C 19,4 C 9,0 C 63 % 1014,8 hPa 0,0 l/m 1,00 h 0,00 h 465 W/m 11,2 km/h (2 Bft) 96,87 %
19.04.2022 10:00 15,3 C 19,8 C 11,5 C 52 % 1014,7 hPa 0,0 l/m 0,50 h 0,00 h 345 W/m 16,0 km/h (3 Bft) 95,16 %
19.04.2022 11:00 16,6 C 19,0 C 13,5 C 49 % 1014,6 hPa 0,0 l/m 1,00 h 0,00 h 710 W/m 18,2 km/h (3 Bft) 97,86 %
19.04.2022 12:00 18,1 C 21,8 C 17,7 C 47 % 1014,2 hPa 0,0 l/m 1,00 h 0,00 h 795 W/m 18,8 km/h (3 Bft) 98,71 %
19.04.2022 13:00 19,1 C 23,4 C 15,1 C 46 % 1013,9 hPa 0,0 l/m 1,00 h 0,00 h 839 W/m 17,9 km/h (3 Bft) 97,29 %
19.04.2022 14:00 20,0 C 25,0 C 15,2 C 44 % 1013,6 hPa 0,0 l/m 1,00 h 0,00 h 818 W/m 16,8 km/h (3 Bft) 98,01 %
19.04.2022 15:00 20,3 C 25,4 C 15,6 C 44 % 1013,2 hPa 0,0 l/m 1,00 h 0,00 h 733 W/m 16,4 km/h (3 Bft) 96,06 %
19.04.2022 16:00 20,3 C 27,2 C 16,4 C 45 % 1013,0 hPa 0,0 l/m 1,00 h 0,00 h 608 W/m 15,0 km/h (3 Bft) 99,00 %
19.04.2022 17:00 19,6 C 25,2 C 16,2 C 46 % 1012,9 hPa 0,0 l/m 1,00 h 0,00 h 417 W/m 16,4 km/h (3 Bft) 98,37 %
19.04.2022 18:00 18,5 C 20,7 C 14,6 C 48 % 1012,8 hPa 0,0 l/m 0,80 h 0,00 h 202 W/m 17,8 km/h (3 Bft) 96,23 %
19.04.2022 19:00 16,7 C 16,0 C 12,2 C 51 % 1012,9 hPa 0,0 l/m 0,00 h 0,00 h 43 W/m 13,0 km/h (3 Bft) 99,00 %
19.04.2022 20:00 14,6 C 13,6 C 9,9 C 53 % 1013,7 hPa 0,0 l/m 0,00 h 0,00 h 11 W/m 6,7 km/h (2 Bft) 96,87 %
19.04.2022 21:00 13,2 C 12,4 C 8,7 C 55 % 1014,6 hPa 0,0 l/m 0,00 h 0,00 h 0 W/m 9,0 km/h (2 Bft) 96,94 %
19.04.2022 22:00 12,1 C 11,1 C 7,4 C 59 % 1015,1 hPa 0,0 l/m 0,00 h 0,00 h 0 W/m 4,2 km/h (1 Bft) 98,00 %
19.04.2022 23:00 10,9 C 10,0 C 6,5 C 63 % 1015,5 hPa 0,0 l/m 0,00 h 0,00 h 0 W/m 4,9 km/h (1 Bft) 98,58 %
20.04.2022 00:00 9,9 C 8,9 C 5,7 C 65 % 1015,7 hPa 0,0 l/m 0,00 h 0,00 h 0 W/m 4,3 km/h (1 Bft) 96,68 %
20.04.2022 01:00 9,1 C 8,0 C 4,8 C 67 % 1015,9 hPa 0,0 l/m 0,00 h 0,00 h 0 W/m 4,3 km/h (1 Bft) 97,51 %
20.04.2022 02:00 8,4 C 7,3 C 4,1 C 69 % 1016,0 hPa 0,0 l/m 0,00 h 0,00 h 0 W/m 4,0 km/h (1 Bft) 96,65 %
20.04.2022 03:00 7,7 C 6,6 C 3,5 C 70 % 1016,0 hPa 0,0 l/m 0,00 h 0,00 h 0 W/m 4,7 km/h (1 Bft) 99,50 %
20.04.2022 04:00 6,9 C 6,0 C 2,8 C 73 % 1016,1 hPa 0,0 l/m 0,00 h 0,00 h 0 W/m 4,6 km/h (1 Bft) 95,25 %
20.04.2022 05:00 6,3 C 5,4 C 2,2 C 74 % 1016,3 hPa 0,0 l/m 0,00 h 0,00 h 0 W/m 4,3 km/h (1 Bft) 98,43 %
20.04.2022 06:00 5,7 C 5,0 C 1,7 C 77 % 1016,5 hPa 0,0 l/m 0,00 h 0,00 h 10 W/m 4,3 km/h (1 Bft) 96,91 %
20.04.2022 07:00 6,0 C 5,7 C 2,4 C 78 % 1016,8 hPa 0,0 l/m 0,00 h 0,00 h 29 W/m 4,3 km/h (1 Bft) 97,66 %
20.04.2022 08:00 7,8 C 8,0 C 4,2 C 75 % 1016,9 hPa 0,0 l/m 0,30 h 0,00 h 132 W/m 7,1 km/h (2 Bft) 95,87 %
20.04.2022 09:00 12,0 C 18,8 C 8,5 C 63 % 1017,0 hPa 0,0 l/m 1,00 h 0,00 h 445 W/m 7,2 km/h (2 Bft) 95,81 %
20.04.2022 10:00 14,6 C 18,1 C 10,9 C 50 % 1017,1 hPa 0,0 l/m 0,53 h 0,00 h 337 W/m 10,5 km/h (2 Bft) 95,34 %
20.04.2022 11:00 15,7 C 18,1 C 12,3 C 49 % 1016,9 hPa 0,0 l/m 1,00 h 0,00 h 728 W/m 10,4 km/h (2 Bft) 95,91 %
20.04.2022 12:00 17,2 C 21,1 C 17,3 C 47 % 1016,3 hPa 0,0 l/m 1,00 h 0,00 h 805 W/m 16,0 km/h (3 Bft) 99,19 %
20.04.2022 13:00 17,8 C 21,7 C 13,7 C 46 % 1015,7 hPa 0,0 l/m 1,00 h 0,00 h 837 W/m 16,7 km/h (3 Bft) 96,47 %
20.04.2022 14:00 18,6 C 23,5 C 13,9 C 45 % 1015,2 hPa 0,0 l/m 1,00 h 0,00 h 811 W/m 16,3 km/h (3 Bft) 99,22 %
20.04.2022 15:00 19,0 C 24,1 C 14,4 C 44 % 1014,6 hPa 0,0 l/m 1,00 h 0,00 h 741 W/m 17,0 km/h (3 Bft) 96,09 %
20.04.2022 16:00 19,4 C 26,4 C 15,6 C 44 % 1014,2 hPa 0,0 l/m 1,00 h 0,00 h 623 W/m 16,5 km/h (3 Bft) 98,02 %
20.04.2022 17:00 19,3 C 26,3 C 16,3 C 46 % 1013,8 hPa 0,0 l/m 1,00 h 0,00 h 468 W/m 15,9 km/h (3 Bft) 99,29 %
20.04.2022 18:00 18,2 C 21,7 C 14,6 C 52 % 1013,6 hPa 0,0 l/m 0,87 h 0,00 h 259 W/m 16,2 km/h (3 Bft) 95,66 %
20.04.2022 19:00 16,2 C 15,9 C 11,8 C 57 % 1013,6 hPa 0,0 l/m 0,00 h 0,00 h 41 W/m 13,4 km/h (3 Bft) 98,33 %
20.04.2022 20:00 14,7 C 13,9 C 10,2 C 61 % 1013,7 hPa 0,0 l/m 0,00 h 0,00 h 12 W/m 10,3 km/h (2 Bft) 97,80 %
20.04.2022 21:00 13,2 C 12,3 C 8,7 C 64 % 1014,1 hPa 0,0 l/m 0,00 h 0,00 h 0 W/m 7,7 km/h (2 Bft) 96,50 %
20.04.2022 22:00 12,1 C 11,2 C 7,8 C 68 % 1014,3 hPa 0,0 l/m 0,00 h 0,00 h 0 W/m 7,3 km/h (2 Bft) 96,34 %
20.04.2022 23:00 11,6 C 10,6 C 7,2 C 69 % 1014,3 hPa 0,0 l/m 0,00 h 0,00 h 0 W/m 6,7 km/h (2 Bft) 97,51 %
21.04.2022 00:00 10,5 C 9,5 C 6,1 C 73 % 1014,4 hPa 0,0 l/m 0,00 h 0,00 h 0 W/m 3,8 km/h (1 Bft) 98,60 %
21.04.2022 01:00 9,8 C 8,8 C 5,5 C 75 % 1014,4 hPa 0,0 l/m 0,00 h 0,00 h 0 W/m 3,0 km/h (1 Bft) 95,94 %
21.04.2022 02:00 9,2 C 8,2 C 5,0 C 77 % 1014,1 hPa 0,0 l/m 0,00 h 0,00 h 0 W/m 4,7 km/h (1 Bft) 98,44 %
21.04.2022 03:00 8,7 C 7,5 C 4,3 C 78 % 1013,8 hPa 0,0 l/m 0,00 h 0,00 h 0 W/m 2,1 km/h (1 Bft) 98,34 %
21.04.2022 04:00 8,0 C 6,6 C 3,6 C 81 % 1013,5 hPa 0,0 l/m 0,00 h 0,00 h 0 W/m 0,7 km/h (0 Bft) 96,47 %
21.04.2022 05:00 7,1 C 6,0 C 2,8 C 83 % 1013,4 hPa 0,0 l/m 0,00 h 0,00 h 0 W/m 3,0 km/h (1 Bft) 96,99 %
21.04.2022 06:00 6,6 C 5,7 C 2,8 C 84 % 1013,6 hPa 0,0 l/m 0,00 h 0,00 h 11 W/m 1,5 km/h (1 Bft) 98,14 %
21.04.2022 07:00 6,7 C 6,6 C 3,2 C 85 % 1013,5 hPa 0,0 l/m 0,00 h 0,00 h 27 W/m 1,8 km/h (1 Bft) 96,67 %
21.04.2022 08:00 8,4 C 8,7 C 4,9 C 80 % 1013,3 hPa 0,0 l/m 0,33 h 0,00 h 130 W/m 9,3 km/h (2 Bft) 97,07 %
21.04.2022 09:00 11,6 C 17,4 C 8,2 C 70 % 1013,4 hPa 0,0 l/m 1,00 h 0,00 h 401 W/m 11,3 km/h (2 Bft) 96,08 %
21.04.2022 10:00 13,4 C 17,3 C 9,9 C 64 % 1013,4 hPa 0,0 l/m 0,57 h 0,00 h 391 W/m 15,8 km/h (3 Bft) 98,48 %
21.04.2022 11:00 15,2 C 17,7 C 12,0 C 52 % 1012,9 hPa 0,0 l/m 1,00 h 0,00 h 706 W/m 17,1 km/h (3 Bft) 96,77 %
21.04.2022 12:00 16,5 C 19,5 C 14,8 C 50 % 1012,4 hPa 0,0 l/m 1,00 h 0,00 h 644 W/m 20,5 km/h (4 Bft) 99,64 %
21.04.2022 13:00 16,2 C 18,1 C 12,9 C 52 % 1011,9 hPa 0,0 l/m 0,83 h 0,00 h 504 W/m 18,9 km/h (3 Bft) 97,53 %
21.04.2022 14:00 17,0 C 20,4 C 13,4 C 54 % 1011,6 hPa 0,0 l/m 0,97 h 0,00 h 701 W/m 21,8 km/h (4 Bft) 96,31 %
21.04.2022 15:00 17,2 C 20,0 C 13,3 C 56 % 1011,0 hPa 0,0 l/m 0,73 h 0,00 h 468 W/m 18,0 km/h (3 Bft) 97,85 %
21.04.2022 16:00 17,4 C 20,9 C 13,8 C 57 % 1010,4 hPa 0,0 l/m 0,80 h 0,00 h 487 W/m 18,8 km/h (3 Bft) 98,56 %
21.04.2022 17:00 17,7 C 23,2 C 14,8 C 58 % 1010,1 hPa 0,0 l/m 1,00 h 0,00 h 461 W/m 21,2 km/h (4 Bft) 95,83 %
21.04.2022 18:00 17,5 C 20,9 C 14,1 C 59 % 1010,0 hPa 0,0 l/m 0,70 h 0,00 h 263 W/m 19,4 km/h (3 Bft) 99,28 %
21.04.2022 19:00 15,6 C 15,2 C 11,5 C 63 % 1010,1 hPa 0,0 l/m 0,00 h 0,00 h 56 W/m 16,8 km/h (3 Bft) 96,96 %
21.04.2022 20:00 14,7 C 14,2 C 10,5 C 65 % 1010,1 hPa 0,0 l/m 0,00 h 0,00 h 17 W/m 13,5 km/h (3 Bft) 97,44 %
21.04.2022 21:00 14,0 C 13,2 C 9,7 C 66 % 1010,0 hPa 0,0 l/m 0,00 h 0,00 h 0 W/m 14,1 km/h (3 Bft) 97,06 %
21.04.2022 22:00 13,1 C 12,3 C 8,7 C 68 % 1009,8 hPa 0,0 l/m 0,00 h 0,00 h 0 W/m 13,9 km/h (3 Bft) 97,29 %
21.04.2022 23:00 11,7 C 10,6 C 7,2 C 73 % 1009,6 hPa 0,0 l/m 0,00 h 0,00 h 0 W/m 9,9 km/h (2 Bft) 96,90 %
22.04.2022 00:00 10,6 C 9,6 C 6,4 C 78 % 1009,5 hPa 0,0 l/m 0,00 h 0,00 h 0 W/m 9,9 km/h (2 Bft) 99,60 %
22.04.2022 01:00 9,9 C 8,9 C 5,7 C 82 % 1009,3 hPa 0,0 l/m 0,00 h 0,00 h 0 W/m 7,6 km/h (2 Bft) 95,94 %
22.04.2022 02:00 9,2 C 8,2 C 5,0 C 85 % 1008,9 hPa 0,0 l/m 0,00 h 0,00 h 0 W/m 6,0 km/h (2 Bft) 97,65 %
22.04.2022 03:00 8,8 C 7,8 C 4,8 C 87 % 1008,6 hPa 0,0 l/m 0,00 h 0,00 h 0 W/m 7,5 km/h (2 Bft) 97,65 %
22.04.2022 04:00 8,5 C 7,4 C 4,3 C 88 % 1008,4 hPa 0,0 l/m 0,00 h 0,00 h 0 W/m 6,0 km/h (2 Bft) 97,17 %
22.04.2022 05:00 8,1 C 7,2 C 4,1 C 90 % 1008,1 hPa 0,0 l/m 0,00 h 0,00 h 0 W/m 6,6 km/h (2 Bft) 96,01 %
22.04.2022 06:00 8,0 C 7,1 C 3,9 C 90 % 1007,9 hPa 0,0 l/m 0,00 h 0,00 h 11 W/m 5,0 km/h (1 Bft) 98,11 %
22.04.2022 07:00 8,3 C 7,8 C 4,5 C 92 % 1007,8 hPa 0,0 l/m 0,00 h 0,00 h 34 W/m 7,1 km/h (2 Bft) 98,65 %
22.04.2022 08:00 9,8 C 10,0 C 6,1 C 90 % 1007,6 hPa 0,0 l/m 0,30 h 0,00 h 141 W/m 12,5 km/h (3 Bft) 95,66 %
22.04.2022 09:00 11,1 C 11,9 C 7,4 C 86 % 1007,4 hPa 0,0 l/m 0,07 h 0,00 h 150 W/m 15,1 km/h (3 Bft) 99,36 %
22.04.2022 10:00 12,7 C 14,5 C 9,1 C 78 % 1007,2 hPa 0,0 l/m 0,07 h 0,00 h 207 W/m 17,4 km/h (3 Bft) 97,08 %
22.04.2022 11:00 15,2 C 18,0 C 12,1 C 68 % 1006,8 hPa 0,0 l/m 1,00 h 0,00 h 747 W/m 22,0 km/h (4 Bft) 96,02 %
22.04.2022 12:00 15,7 C 17,7 C 12,9 C 66 % 1006,2 hPa 0,0 l/m 0,30 h 0,00 h 412 W/m 22,4 km/h (4 Bft) 97,72 %
22.04.2022 13:00 16,1 C 18,0 C 12,8 C 65 % 1005,8 hPa 0,0 l/m 0,30 h 0,00 h 396 W/m 17,5 km/h (3 Bft) 98,15 %
22.04.2022 14:00 16,7 C 18,8 C 12,9 C 64 % 1005,2 hPa 0,0 l/m 0,53 h 0,00 h 483 W/m 22,1 km/h (4 Bft) 96,94 %
22.04.2022 15:00 17,1 C 19,7 C 13,4 C 63 % 1004,9 hPa 0,0 l/m 0,70 h 0,00 h 530 W/m 20,6 km/h (4 Bft) 97,70 %
22.04.2022 16:00 16,7 C 20,7 C 13,4 C 63 % 1004,7 hPa 0,0 l/m 0,73 h 0,00 h 493 W/m 24,6 km/h (4 Bft) 96,24 %
22.04.2022 17:00 16,9 C 21,5 C 14,0 C 62 % 1004,6 hPa 0,0 l/m 0,83 h 0,00 h 386 W/m 20,5 km/h (4 Bft) 99,36 %
22.04.2022 18:00 16,1 C 16,4 C 12,4 C 65 % 1004,5 hPa 0,0 l/m 0,10 h 0,00 h 134 W/m 17,7 km/h (3 Bft) 96,84 %
22.04.2022 19:00 15,6 C 15,3 C 11,5 C 65 % 1004,5 hPa 0,0 l/m 0,20 h 0,00 h 73 W/m 17,1 km/h (3 Bft) 97,51 %
22.04.2022 20:00 14,5 C 13,5 C 10,0 C 67 % 1004,7 hPa 0,0 l/m 0,00 h 0,00 h 17 W/m 13,1 km/h (3 Bft) 97,32 %
22.04.2022 21:00 12,9 C 11,7 C 8,3 C 74 % 1005,1 hPa 0,0 l/m 0,00 h 0,00 h 0 W/m 8,7 km/h (2 Bft) 97,73 %
22.04.2022 22:00 11,7 C 10,6 C 7,3 C 78 % 1005,4 hPa 0,0 l/m 0,00 h 0,00 h 0 W/m 6,8 km/h (2 Bft) 96,15 %
22.04.2022 23:00 10,8 C 9,7 C 6,6 C 81 % 1005,5 hPa 0,0 l/m 0,00 h 0,00 h 0 W/m 6,0 km/h (2 Bft) 98,09 %
23.04.2022 00:00 10,4 C 9,4 C 6,1 C 84 % 1005,4 hPa 0,0 l/m 0,00 h 0,00 h 0 W/m 7,5 km/h (2 Bft) 98,72 %
23.04.2022 01:00 10,0 C 9,0 C 5,7 C 86 % 1005,2 hPa 0,0 l/m 0,00 h 0,00 h 0 W/m 7,3 km/h (2 Bft) 94,21 %
23.04.2022 02:00 9,4 C 8,2 C 5,1 C 87 % 1005,2 hPa 0,0 l/m 0,00 h 0,00 h 0 W/m 5,2 km/h (1 Bft) 98,58 %
23.04.2022 03:00 8,7 C 7,7 C 4,4 C 89 % 1005,2 hPa 0,0 l/m 0,00 h 0,00 h 0 W/m 6,2 km/h (2 Bft) 97,25 %
23.04.2022 04:00 8,4 C 7,4 C 4,4 C 91 % 1005,2 hPa 0,0 l/m 0,00 h 0,00 h 0 W/m 6,2 km/h (2 Bft) 98,27 %
23.04.2022 05:00 8,1 C 7,1 C 3,9 C 92 % 1005,0 hPa 0,0 l/m 0,00 h 0,00 h 0 W/m 6,5 km/h (2 Bft) 96,80 %
23.04.2022 06:00 8,1 C 7,2 C 4,0 C 94 % 1004,8 hPa 0,0 l/m 0,00 h 0,00 h 12 W/m 8,8 km/h (2 Bft) 98,89 %
23.04.2022 07:00 8,7 C 8,3 C 5,0 C 95 % 1004,8 hPa 0,0 l/m 0,00 h 0,00 h 39 W/m 10,3 km/h (2 Bft) 97,44 %
23.04.2022 08:00 10,3 C 10,7 C 6,8 C 93 % 1004,7 hPa 0,0 l/m 0,37 h 0,00 h 148 W/m 11,9 km/h (2 Bft) 95,19 %
23.04.2022 09:00 13,3 C 18,2 C 9,6 C 80 % 1004,6 hPa 0,0 l/m 0,90 h 0,00 h 373 W/m 14,4 km/h (3 Bft) 97,90 %
23.04.2022 10:00 15,6 C 19,3 C 12,0 C 70 % 1004,4 hPa 0,0 l/m 0,63 h 0,00 h 390 W/m 14,8 km/h (3 Bft) 97,94 %
23.04.2022 11:00 17,0 C 18,6 C 13,7 C 65 % 1004,3 hPa 0,0 l/m 0,97 h 0,00 h 532 W/m 16,7 km/h (3 Bft) 98,01 %
23.04.2022 12:00 18,5 C 21,0 C 16,5 C 60 % 1004,1 hPa 0,0 l/m 0,77 h 0,00 h 625 W/m 17,1 km/h (3 Bft) 98,57 %
23.04.2022 13:00 19,1 C 21,1 C 15,5 C 57 % 1003,9 hPa 0,0 l/m 0,60 h 0,00 h 538 W/m 18,7 km/h (3 Bft) 94,80 %
23.04.2022 14:00 19,6 C 22,6 C 15,5 C 55 % 1003,5 hPa 0,0 l/m 0,83 h 0,00 h 749 W/m 19,8 km/h (4 Bft) 99,72 %
23.04.2022 15:00 20,1 C 22,5 C 15,9 C 53 % 1003,1 hPa 0,0 l/m 0,77 h 0,00 h 620 W/m 16,6 km/h (3 Bft) 97,50 %
23.04.2022 16:00 19,6 C 21,7 C 15,4 C 54 % 1002,8 hPa 0,0 l/m 0,43 h 0,00 h 336 W/m 16,5 km/h (3 Bft) 97,01 %
23.04.2022 17:00 18,3 C 18,4 C 14,1 C 57 % 1002,7 hPa 0,0 l/m 0,13 h 0,00 h 156 W/m 19,8 km/h (4 Bft) 97,97 %
23.04.2022 18:00 17,7 C 17,8 C 13,4 C 57 % 1002,6 hPa 0,0 l/m 0,57 h 0,00 h 185 W/m 17,5 km/h (3 Bft) 97,71 %
23.04.2022 19:00 17,0 C 16,3 C 12,6 C 58 % 1002,6 hPa 0,0 l/m 0,00 h 0,00 h 42 W/m 13,6 km/h (3 Bft) 96,42 %
23.04.2022 20:00 16,1 C 15,2 C 11,5 C 61 % 1002,6 hPa 0,0 l/m 0,00 h 0,00 h 11 W/m 9,8 km/h (2 Bft) 99,35 %
23.04.2022 21:00 15,5 C 14,8 C 10,9 C 63 % 1002,5 hPa 0,0 l/m 0,00 h 0,00 h 0 W/m 7,3 km/h (2 Bft) 95,57 %
23.04.2022 22:00 14,9 C 14,4 C 10,6 C 58 % 1002,4 hPa 0,0 l/m 0,00 h 0,00 h 0 W/m 11,3 km/h (2 Bft) 98,29 %
23.04.2022 23:00 14,7 C 13,9 C 10,2 C 56 % 1002,3 hPa 0,0 l/m 0,00 h 0,00 h 0 W/m 10,4 km/h (2 Bft) 98,50 %
24.04.2022 00:00 14,1 C 13,4 C 9,5 C 59 % 1002,2 hPa 0,0 l/m 0,00 h 0,00 h 0 W/m 8,8 km/h (2 Bft) 96,40 %
24.04.2022 01:00 13,6 C 12,8 C 9,1 C 60 % 1002,0 hPa 0,0 l/m 0,00 h 0,00 h 0 W/m 10,0 km/h (2 Bft) 98,05 %
24.04.2022 02:00 13,0 C 12,3 C 8,7 C 62 % 1001,7 hPa 0,0 l/m 0,00 h 0,00 h 0 W/m 12,4 km/h (3 Bft) 99,08 %
24.04.2022 03:00 11,8 C 10,7 C 7,2 C 66 % 1001,5 hPa 0,0 l/m 0,00 h 0,00 h 0 W/m 10,5 km/h (2 Bft) 95,15 %
24.04.2022 04:00 10,7 C 9,8 C 6,5 C 69 % 1001,5 hPa 0,0 l/m 0,00 h 0,00 h 0 W/m 16,3 km/h (3 Bft) 98,45 %
24.04.2022 05:00 10,0 C 9,1 C 5,7 C 71 % 1001,5 hPa 0,0 l/m 0,00 h 0,00 h 0 W/m 19,1 km/h (3 Bft) 98,40 %
24.04.2022 06:00 9,4 C 8,6 C 5,0 C 73 % 1001,6 hPa 0,0 l/m 0,00 h 0,00 h 11 W/m 19,5 km/h (3 Bft) 93,68 %
24.04.2022 07:00 9,3 C 8,8 C 5,0 C 75 % 1002,1 hPa 0,0 l/m 0,00 h 0,00 h 33 W/m 22,6 km/h (4 Bft) 99,29 %
24.04.2022 08:00 9,9 C 10,2 C 5,9 C 74 % 1002,4 hPa 0,0 l/m 0,37 h 0,00 h 168 W/m 21,5 km/h (4 Bft) 96,61 %
24.04.2022 09:00 12,3 C 16,3 C 8,6 C 68 % 1002,6 hPa 0,0 l/m 0,97 h 0,00 h 450 W/m 25,4 km/h (4 Bft) 96,90 %
24.04.2022 10:00 14,3 C 17,7 C 10,6 C 63 % 1002,6 hPa 0,0 l/m 0,73 h 0,00 h 445 W/m 23,4 km/h (4 Bft) 98,65 %
24.04.2022 11:00 16,1 C 17,8 C 12,6 C 58 % 1002,7 hPa 0,0 l/m 1,00 h 0,00 h 738 W/m 24,9 km/h (4 Bft) 99,35 %
24.04.2022 12:00 17,8 C 20,8 C 16,6 C 54 % 1002,9 hPa 0,0 l/m 1,00 h 0,00 h 814 W/m 23,3 km/h (4 Bft) 97,51 %
24.04.2022 13:00 18,9 C 22,2 C 14,9 C 52 % 1002,9 hPa 0,0 l/m 1,00 h 0,00 h 850 W/m 22,5 km/h (4 Bft) 98,73 %
24.04.2022 14:00 19,7 C 23,3 C 15,2 C 48 % 1003,0 hPa 0,0 l/m 1,00 h 0,00 h 876 W/m 22,6 km/h (4 Bft) 94,87 %
24.04.2022 15:00 19,3 C 22,5 C 14,9 C 48 % 1003,1 hPa 0,0 l/m 0,87 h 0,00 h 692 W/m 23,5 km/h (4 Bft) 99,21 %
24.04.2022 16:00 19,3 C 24,2 C 15,5 C 47 % 1003,3 hPa 0,0 l/m 0,93 h 0,00 h 609 W/m 19,1 km/h (3 Bft) 98,32 %
24.04.2022 17:00 17,9 C 18,5 C 13,8 C 49 % 1003,7 hPa 0,0 l/m 0,17 h 0,00 h 177 W/m 18,7 km/h (3 Bft) 95,70 %
24.04.2022 18:00 18,3 C 21,3 C 14,5 C 49 % 1004,0 hPa 0,0 l/m 0,97 h 0,00 h 313 W/m 18,5 km/h (3 Bft) 98,52 %
24.04.2022 19:00 17,0 C 16,5 C 12,5 C 51 % 1004,3 hPa 0,0 l/m 0,23 h 0,00 h 79 W/m 15,0 km/h (3 Bft) 98,08 %
24.04.2022 20:00 15,6 C 14,6 C 11,0 C 56 % 1004,9 hPa 0,0 l/m 0,40 h 0,00 h 27 W/m 13,2 km/h (3 Bft) 96,74 %
24.04.2022 21:00 14,1 C 13,1 C 9,5 C 62 % 1005,9 hPa 0,0 l/m 0,00 h 0,00 h 0 W/m 10,5 km/h (2 Bft) 98,93 %
24.04.2022 22:00 13,3 C 12,3 C 8,9 C 65 % 1006,5 hPa 0,0 l/m 0,00 h 0,00 h 0 W/m 13,3 km/h (3 Bft) 96,81 %
24.04.2022 23:00 12,6 C 11,8 C 8,3 C 67 % 1006,8 hPa 0,0 l/m 0,00 h 0,03 h 0 W/m 11,4 km/h (2 Bft) 98,22 %
Min-Datum _ 20.04.22 19.04.22 19.04.22 18.04.22 24.04.22 - - - - 18.04.22 24.04.22
_ Min-Zeit 06:52 05:08 04:52 13:50 03:50 - - - - 00:04 06:30
Minimum _ 5,5 C 4,4 C 1,7 C 35 % 1001,4 hPa - - - - 0,0 km/h (0 Bft) 38,24 %
Max-Datum _ 18.04.22 18.04.22 18.04.22 23.04.22 18.04.22 18.04.22 18.04.22 24.04.22 22.04.22 24.04.22 18.04.22
_ Max-Zeit 18:24 16:46 12:32 07:02 00:00 00:00 12:08 23:52 13:00 07:24 00:42
Maximum _ 22,6 C 30,0 C 22,8 C 95 % 1021,5 hPa 0,0 l/m 0,07 h 0,03 h 1038 W/m 48,3 km/h
N-NO (6 Bft)
100,00 %
Durchschnitt _ 13,4 C 14,4 C 9,4 C 64 % 1010,6 hPa #0,0 l/m #59:44 h #2 min. 374 W/m 11,7 km/h (2 Bft) 97,42 %
© 2022 W. Hausmann